FW2178 Weather Reports


Display with metric or nautical units.
time (UTC)temp
F
wind
direction
speed
MPH
gust
MPH
rain 1hr
in
rain 24hr
in
rain mn
in
humidity
%
barometer
mb
20200118164324 38 196 0.0 0.0 0.04 0.52 0.52 98 1018.2
20200118163818 38 232 0.0 0.0 0.04 0.51 0.51 98 1018.2
20200118163312 38 199 0.0 0.0 0.04 0.51 0.51 98 1018.5
20200118162806 38 199 0.0 0.0 0.04 0.51 0.51 98 1018.2
20200118162301 38 199 0.0 0.0 0.04 0.51 0.51 98 1018.5
20200118161755 38 193 0.0 0.0 0.05 0.51 0.51 97 1018.2
20200118161249 38 230 0.0 0.0 0.03 0.49 0.49 97 1018.5
20200118160744 38 200 0.0 0.0 0.04 0.49 0.49 97 1018.2
20200118160238 38 194 0.0 0.0 0.04 0.49 0.49 97 1018.2
20200118155732 38 200 0.0 0.0 0.05 0.49 0.49 97 1017.8
20200118155228 38 201 0.0 0.0 0.06 0.48 0.48 97 1018.2
20200118154722 38 200 0.0 0.0 0.06 0.48 0.48 97 1017.8
20200118154216 38 202 0.0 2.0 0.06 0.48 0.48 97 1017.8
20200118153711 38 199 0.0 2.0 0.06 0.47 0.47 97 1017.8
20200118153205 38 217 0.0 0.0 0.06 0.47 0.47 97 1017.8
20200118152659 37 225 0.0 0.0 0.07 0.47 0.47 97 1017.5
20200118152154 37 233 0.0 0.0 0.06 0.46 0.46 97 1017.8
20200118151648 37 233 0.0 0.0 0.06 0.46 0.46 97 1017.5
20200118151143 37 201 0.0 0.0 0.07 0.46 0.46 93 1017.8
20200118150639 37 227 0.0 0.0 0.06 0.45 0.45 97 1017.8
20200118150131 37 195 0.0 0.0 0.07 0.45 0.45 93 1017.5
20200118145627 37 233 0.0 2.0 0.06 0.44 0.44 93 1017.8
20200118145121 38 199 0.0 2.0 0.06 0.42 0.42 97 1017.8
20200118144615 37 234 0.0 0.0 0.07 0.42 0.42 97 1017.5
20200118144109 37 212 0.0 0.0 0.06 0.41 0.42 92 1017.5
20200118143604 37 197 0.0 0.0 0.07 0.41 0.41 92 1017.1
20200118143058 37 227 0.0 0.0 0.07 0.41 0.41 92 1017.5
20200118142552 37 196 0.0 2.0 0.07 0.40 0.40 92 1017.5
20200118142049 37 192 0.0 2.0 0.08 0.40 0.40 92 1017.5
20200118141541 37 197 0.0 0.0 0.08 0.39 0.39 92 1017.5
20200118141036 37 198 0.0 0.0 0.10 0.39 0.39 92 1017.1
20200118140530 37 197 0.0 0.0 0.11 0.39 0.39 92 1017.1
20200118140024 37 202 0.0 0.0 0.11 0.38 0.38 92 1017.5
20200118135519 37 199 0.0 0.0 0.10 0.36 0.36 92 1017.1
20200118135013 37 198 0.0 0.0 0.11 0.36 0.36 92 1017.1
20200118134508 37 195 0.0 0.0 0.12 0.35 0.35 92 1017.1
20200118134003 37 193 0.0 0.0 0.12 0.35 0.35 92 1017.1
20200118133457 37 236 0.0 0.0 0.12 0.34 0.34 92 1017.5
20200118132950 37 200 0.0 0.0 0.12 0.33 0.33 91 1017.1
20200118132445 37 186 0.0 0.0 0.14 0.33 0.33 91 1017.1
20200118131939 37 191 0.0 0.0 0.16 0.32 0.32 91 1017.5
20200118131434 36 195 0.0 0.0 0.16 0.31 0.31 91 1017.5
20200118130928 37 200 0.0 0.0 0.15 0.29 0.29 91 1017.8
20200118130423 37 198 0.0 0.0 0.14 0.28 0.28 91 1017.5
20200118125917 37 199 0.0 0.0 0.14 0.27 0.27 91 1017.1
20200118125412 37 200 0.0 0.0 0.14 0.26 0.26 91 1017.5
20200118124906 37 229 0.0 0.0 0.13 0.25 0.25 91 1017.5
20200118124401 37 164 0.0 0.0 0.13 0.23 0.23 90 1017.1
20200118123855 37 196 0.0 0.0 0.12 0.22 0.23 90 1017.1
20200118123349 37 225 0.0 0.0 0.13 0.22 0.22 90 1017.1
20200118122844 37 194 0.0 0.0 0.11 0.20 0.20 90 1017.1
20200118122338 37 201 0.0 0.0 0.09 0.18 0.19 90 1017.1
20200118121833 37 186 0.0 2.0 0.08 0.16 0.16 90 1017.1
20200118121327 37 202 0.0 2.0 0.07 0.15 0.15 90 1017.1
20200118120822 37 157 0.0 0.0 0.06 0.14 0.14 90 1017.5
20200118120315 37 202 0.0 0.0 0.05 0.13 0.13 89 1017.5
20200118115811 37 190 0.0 0.0 0.05 0.13 0.13 89 1017.1
20200118115305 37 202 0.0 0.0 0.05 0.12 0.12 89 1017.5
20200118114759 37 231 0.0 2.0 0.05 0.12 0.12 89 1017.8
20200118114254 37 168 0.0 2.0 0.03 0.10 0.10 93 1017.5
20200118113748 37 176 0.0 0.0 0.03 0.09 0.10 89 1017.8
20200118113242 37 193 0.0 2.0 0.03 0.09 0.09 89 1017.8
20200118112737 37 211 0.0 2.0 0.05 0.09 0.09 89 1017.5
20200118112231 37 198 0.0 0.0 0.05 0.09 0.09 93 1017.8
20200118111725 37 191 0.0 2.0 0.04 0.08 0.08 93 1017.8
20200118111220 37 164 0.0 2.0 0.05 0.08 0.08 93 1018.2
20200118110716 37 188 0.0 2.0 0.06 0.08 0.08 93 1017.8
20200118110209 38 236 0.0 2.0 0.06 0.08 0.08 93 1017.8
20200118105704 37 201 0.0 2.0 0.07 0.08 0.08 92 1018.2
20200118105157 37 203 0.0 2.0 0.06 0.07 0.07 92 1017.8
20200118104654 37 190 0.0 0.0 0.07 0.07 0.07 92 1017.8
20200118104146 37 180 0.0 0.0 0.07 0.07 0.07 88 1018.2
20200118103640 37 184 0.0 5.0 0.06 0.06 0.06 91 1018.2
20200118103135 37 217 0.0 5.0 0.06 0.06 0.06 91 1018.2
20200118102631 37 196 0.0 0.0 0.04 0.04 0.04 90 1018.2
20200118102125 37 185 0.0 2.0 0.04 0.04 0.04 89 1018.2
20200118101618 37 197 0.0 2.0 0.03 0.03 0.03 88 1017.8
20200118101113 37 191 0.0 0.0 0.03 0.03 0.03 87 1018.2
20200118100607 38 189 0.0 0.0 0.02 0.02 0.02 86 1018.2
20200118100101 38 191 0.0 2.0 0.02 0.02 0.02 85 1018.2
20200118095556 38 198 0.0 2.0 0.01 0.01 0.01 84 1018.2
20200118095050 38 224 0.0 2.0 0.00 0.00 0.01 85 1018.2
20200118094545 38 191 0.0 2.0 0.00 0.00 0.00 86 1017.8
20200118094040 37 237 0.0 0.0 0.00 0.00 0.00 83 1018.2
20200118093534 36 203 0.0 0.0 0.00 0.00 0.00 83 1017.5
20200118093028 36 227 0.0 0.0 0.00 0.00 0.00 83 1017.5
20200118092522 36 228 0.0 0.0 0.00 0.00 0.00 83 1017.5
20200118092017 36 229 0.0 0.0 0.00 0.00 0.00 82 1017.8
20200118091006 36 195 0.0 0.0 0.00 0.00 0.00 81 1017.8
20200118090502 36 201 0.0 0.0 0.00 0.00 0.00 81 1018.2
20200118085955 36 201 0.0 0.0 0.00 0.00 0.00 80 1018.2
20200118085451 36 201 0.0 0.0 0.00 0.00 0.00 81 1018.2
20200118084944 36 201 0.0 0.0 0.00 0.00 0.00 80 1018.2
20200118084439 36 193 0.0 0.0 0.00 0.00 0.00 80 1017.8
20200118083932 36 191 0.0 0.0 0.00 0.00 0.00 79 1018.5
20200118083427 36 231 0.0 0.0 0.00 0.00 0.00 79 1018.2
20200118082922 36 231 0.0 0.0 0.00 0.00 0.00 79 1018.5
20200118082416 36 231 0.0 0.0 0.00 0.00 0.00 79 1018.2
20200118081910 37 232 0.0 0.0 0.00 0.00 0.00 78 1018.2
20200118081405 37 235 0.0 0.0 0.00 0.00 0.00 78 1018.5
20200118080900 37 234 0.0 0.0 0.00 0.00 0.00 78 1018.5
20200118080354 36 233 0.0 0.0 0.00 0.00 0.00 78 1018.8
20200118075848 37 233 0.0 0.0 0.00 0.00 0.00 77 1019.2
20200118075343 37 199 0.0 0.0 0.00 0.00 0.00 76 1018.5
20200118074837 37 231 0.0 0.0 0.00 0.00 0.00 74 1018.8
20200118074331 37 204 0.0 0.0 0.00 0.00 0.00 74 1018.8
20200118073826 37 201 0.0 0.0 0.00 0.00 0.00 71 1018.5
20200118073321 37 226 0.0 0.0 0.00 0.00 0.00 72 1018.8
20200118072815 37 183 0.0 0.0 0.00 0.00 0.00 72 1018.8
20200118072309 37 202 0.0 0.0 0.00 0.00 0.00 72 1018.8
20200118071805 37 196 0.0 0.0 0.00 0.00 0.00 73 1019.2
20200118071258 37 184 0.0 0.0 0.00 0.00 0.00 71 1018.8
20200118070753 37 236 0.0 0.0 0.00 0.00 0.00 72 1019.2
20200118070247 37 176 0.0 0.0 0.00 0.00 0.00 71 1019.2
20200118065742 37 201 0.0 2.0 0.00 0.00 0.00 71 1018.8
20200118065235 37 195 0.0 2.0 0.00 0.00 0.00 70 1019.2
20200118064730 37 198 0.0 2.0 0.00 0.00 0.00 71 1019.2
20200118064225 37 188 0.0 2.0 0.00 0.00 0.00 71 1018.8
20200118063719 36 197 0.0 0.0 0.00 0.00 0.00 74 1019.2
20200118063214 37 226 0.0 0.0 0.00 0.00 0.00 71 1019.2
20200118062708 36 232 0.0 0.0 0.00 0.00 0.00 72 1019.2
20200118062203 37 189 0.0 0.0 0.00 0.00 0.00 72 1019.2
20200118061657 36 184 0.0 0.0 0.00 0.00 0.00 73 1019.5
20200118061151 36 189 0.0 0.0 0.00 0.00 0.00 72 1019.2
20200118060646 36 190 0.0 0.0 0.00 0.00 0.00 73 1019.5
20200118060140 36 190 0.0 0.0 0.00 0.00 0.00 74 1019.2
20200118055637 36 202 0.0 2.0 0.00 0.00 0.00 74 1019.2
20200118055129 37 195 0.0 2.0 0.00 0.00 0.00 72 1019.2
20200118054626 36 197 0.0 0.0 0.00 0.00 0.00 74 1019.2
20200118054118 37 189 0.0 0.0 0.00 0.00 0.00 70 1019.5
20200118053612 36 157 0.0 0.0 0.00 0.00 0.00 72 1019.5
20200118053106 36 202 0.0 0.0 0.00 0.00 0.00 73 1019.8
20200118052601 36 199 0.0 0.0 0.00 0.00 0.00 72 1019.8
20200118052055 36 199 0.0 0.0 0.00 0.00 0.00 72 1019.8
20200118051550 36 202 0.0 0.0 0.00 0.00 0.00 72 1019.8
20200118051045 36 200 0.0 0.0 0.00 0.00 0.00 72 1019.8
20200118050539 36 197 0.0 0.0 0.00 0.00 0.00 74 1019.8
20200118050033 37 181 0.0 0.0 0.00 0.00 0.00 73 1019.8
20200118045528 36 187 0.0 0.0 0.00 0.00 0.00 74 1019.8
20200118045023 36 191 0.0 0.0 0.00 0.00 0.00 75 1019.8
20200118044517 36 233 0.0 0.0 0.00 0.00 0.00 74 1019.8
20200118044011 36 237 0.0 0.0 0.00 0.00 0.00 76 1019.8
20200118043506 36 229 0.0 0.0 0.00 0.00 0.00 77 1019.8
20200118043001 36 237 0.0 0.0 0.00 0.00 0.00 79 1019.8
20200118042455 36 235 0.0 0.0 0.00 0.00 0.00 79 1019.8
20200118041949 36 235 0.0 0.0 0.00 0.00 0.00 80 1020.2
20200118041444 36 216 0.0 0.0 0.00 0.00 0.00 80 1020.2
20200118040938 35 231 0.0 0.0 0.00 0.00 0.00 81 1020.2
20200118040432 36 199 0.0 0.0 0.00 0.00 0.00 81 1019.8
20200118035927 36 199 0.0 2.0 0.00 0.00 0.00 82 1020.5
20200118035421 36 237 0.0 2.0 0.00 0.00 0.00 81 1020.5
20200118034916 36 227 0.0 0.0 0.00 0.00 0.00 82 1020.5
20200118034411 36 221 0.0 0.0 0.00 0.00 0.00 82 1020.5
20200118033904 35 228 0.0 0.0 0.00 0.00 0.00 84 1020.2
20200118033359 35 227 0.0 0.0 0.00 0.00 0.00 85 1020.5
20200118032853 35 236 0.0 0.0 0.00 0.00 0.00 86 1020.5
20200118032348 36 199 0.0 0.0 0.00 0.00 0.00 84 1020.9
20200118031337 36 224 0.0 0.0 0.00 0.00 0.00 84 1020.5
20200118030831 35 174 0.0 0.0 0.00 0.00 0.00 85 1020.9
20200118030325 36 184 0.0 0.0 0.00 0.00 0.00 85 1020.9
20200118025820 36 224 0.0 0.0 0.00 0.00 0.00 84 1020.9
20200118025314 36 231 0.0 0.0 0.00 0.00 0.00 84 1021.2
20200118024809 36 198 0.0 0.0 0.00 0.00 0.00 85 1020.9
20200118024303 35 237 0.0 0.0 0.00 0.00 0.00 85 1020.9
20200118023758 36 198 0.0 0.0 0.00 0.00 0.00 86 1021.2
20200118023252 36 231 0.0 0.0 0.00 0.00 0.00 86 1021.2
20200118022746 35 223 0.0 0.0 0.00 0.00 0.00 87 1021.2
20200118022241 35 221 0.0 0.0 0.00 0.00 0.00 88 1021.2
20200118021736 35 224 0.0 0.0 0.00 0.00 0.00 88 1021.2
20200118021229 35 192 0.0 0.0 0.00 0.00 0.00 88 1021.2
20200118020724 35 224 0.0 0.0 0.00 0.00 0.00 89 1021.2
20200118020219 35 233 0.0 0.0 0.00 0.00 0.00 89 1021.2
20200118015713 35 232 0.0 0.0 0.00 0.00 0.00 89 1021.2
20200118015207 35 202 0.0 0.0 0.00 0.00 0.00 89 1021.5
20200118014702 35 201 0.0 0.0 0.00 0.00 0.00 89 1021.5
20200118014157 35 194 0.0 0.0 0.00 0.00 0.00 89 1021.2
20200118013651 35 201 0.0 0.0 0.00 0.00 0.00 89 1021.5
20200118013145 35 195 0.0 0.0 0.00 0.00 0.00 89 1021.5
20200118012639 35 209 0.0 0.0 0.00 0.00 0.00 89 1021.5
20200118012134 36 199 0.0 0.0 0.00 0.00 0.00 87 1021.5
20200118011629 36 199 0.0 0.0 0.00 0.00 0.00 87 1021.5
20200118011123 36 231 0.0 0.0 0.00 0.00 0.00 86 1021.5
20200118010623 36 198 0.0 0.0 0.00 0.00 0.00 86 1021.5
20200118010112 36 189 0.0 0.0 0.00 0.00 0.00 85 1021.5
20200118005606 36 191 0.0 0.0 0.00 0.00 0.00 84 1021.5
20200118005100 37 197 0.0 0.0 0.00 0.00 0.00 83 1021.5
20200118004557 37 234 0.0 0.0 0.00 0.00 0.00 82 1021.9
20200118004050 37 225 0.0 0.0 0.00 0.00 0.00 81 1022.2
20200118003544 37 217 0.0 0.0 0.00 0.00 0.00 80 1021.5
20200118003038 37 199 0.0 0.0 0.00 0.00 0.00 79 1022.2
20200118002533 37 195 0.0 2.0 0.00 0.00 0.00 79 1021.5
20200118002027 38 191 0.0 5.0 0.00 0.00 0.00 84 1021.5
20200118001521 37 162 0.0 5.0 0.00 0.00 0.00 87 1021.5
20200118001017 37 196 0.0 0.0 0.00 0.00 0.00 84 1021.5
20200118000511 37 196 0.0 0.0 0.00 0.00 0.00 83 1021.5
20200118000005 37 199 0.0 0.0 0.00 0.00 0.00 82 1021.5
20200117235459 37 197 0.0 0.0 0.00 0.00 0.00 81 1021.5
20200117234954 37 219 0.0 0.0 0.00 0.00 0.00 81 1021.5
20200117234448 37 233 0.0 0.0 0.00 0.00 0.00 79 1021.9
20200117233943 37 202 0.0 0.0 0.00 0.00 0.00 80 1021.5
20200117233438 37 202 0.0 0.0 0.00 0.00 0.00 80 1021.5
20200117232931 37 202 0.0 0.0 0.00 0.00 0.00 80 1021.5
20200117232426 37 200 0.0 0.0 0.00 0.00 0.00 84 1021.2
20200117231921 37 228 0.0 0.0 0.00 0.00 0.00 83 1021.5
20200117231415 38 220 0.0 0.0 0.00 0.00 0.00 84 1021.5
20200117230909 38 191 0.0 0.0 0.00 0.00 0.00 84 1021.2
20200117230403 38 200 0.0 0.0 0.00 0.00 0.00 84 1020.9
20200117225857 38 195 0.0 0.0 0.00 0.00 0.00 83 1021.2
20200117225352 38 193 0.0 0.0 0.00 0.00 0.00 83 1021.2
20200117224847 38 197 0.0 0.0 0.00 0.00 0.00 83 1020.9
20200117224341 38 197 0.0 0.0 0.00 0.00 0.00 83 1020.9
20200117223835 37 196 0.0 0.0 0.00 0.00 0.00 83 1020.9
20200117223330 37 196 0.0 0.0 0.00 0.00 0.00 82 1021.2
20200117222824 38 194 0.0 0.0 0.00 0.00 0.00 81 1020.9
20200117222318 38 200 0.0 0.0 0.00 0.00 0.00 81 1021.2
20200117221813 38 236 0.0 0.0 0.00 0.00 0.00 82 1020.9
20200117221308 39 177 0.0 0.0 0.00 0.00 0.00 82 1021.2
20200117220802 39 194 0.0 0.0 0.00 0.00 0.00 82 1020.9
20200117220256 39 195 0.0 0.0 0.00 0.00 0.00 80 1020.9
20200117215751 39 193 0.0 2.0 0.00 0.00 0.00 79 1020.9
20200117215245 39 83 1.0 2.0 0.00 0.00 0.00 83 1020.9
20200117214742 39 197 0.0 0.0 0.00 0.00 0.00 83 1020.9
20200117214234 38 200 0.0 0.0 0.00 0.00 0.00 82 1020.9
20200117213729 39 189 0.0 0.0 0.00 0.00 0.00 82 1021.2
20200117213223 39 190 0.0 0.0 0.00 0.00 0.00 82 1020.9
20200117212717 39 194 0.0 0.0 0.00 0.00 0.00 81 1020.9
20200117212212 39 191 0.0 0.0 0.00 0.00 0.00 79 1020.9
20200117211706 39 191 0.0 0.0 0.00 0.00 0.00 79 1020.9
20200117211200 38 187 0.0 0.0 0.00 0.00 0.00 80 1021.2
20200117210655 38 178 0.0 0.0 0.00 0.00 0.00 82 1020.9
20200117210150 38 194 0.0 0.0 0.00 0.00 0.00 82 1020.9
20200117205644 38 191 0.0 0.0 0.00 0.00 0.00 82 1020.9
20200117205138 38 200 0.0 0.0 0.00 0.00 0.00 81 1020.9
20200117204634 38 224 0.0 0.0 0.00 0.00 0.00 82 1020.9
20200117204127 38 194 0.0 0.0 0.00 0.00 0.00 82 1020.9
20200117203622 38 191 0.0 0.0 0.00 0.00 0.00 83 1020.9
20200117203116 38 191 0.0 0.0 0.00 0.00 0.00 85 1020.9
20200117202616 38 193 0.0 0.0 0.00 0.00 0.00 87 1021.2
20200117202105 37 235 0.0 0.0 0.00 0.00 0.00 92 1021.2
20200117201559 37 199 0.0 0.0 0.00 0.00 0.00 90 1020.9
20200117201054 37 232 0.0 0.0 0.00 0.00 0.00 92 1020.9
20200117200549 37 203 0.0 0.0 0.00 0.00 0.00 92 1020.9
20200117200042 37 223 0.0 0.0 0.00 0.00 0.00 93 1020.9
20200117195537 36 196 0.0 0.0 0.00 0.00 0.00 93 1020.9
20200117195037 36 191 0.0 0.0 0.00 0.00 0.00 93 1020.9
20200117194526 36 200 0.0 0.0 0.00 0.00 0.00 93 1020.9
20200117194020 36 192 0.0 0.0 0.00 0.00 0.00 93 1020.9
20200117193514 36 187 0.0 0.0 0.00 0.00 0.00 93 1020.9
20200117193009 36 190 0.0 0.0 0.00 0.00 0.00 93 1020.9
20200117192503 36 191 0.0 0.0 0.00 0.00 0.00 93 1020.9
20200117191957 37 183 0.0 0.0 0.00 0.00 0.00 93 1021.2
20200117191451 37 197 0.0 0.0 0.00 0.00 0.00 93 1021.2
20200117190947 36 197 0.0 0.0 0.00 0.00 0.00 93 1020.9
20200117190441 36 200 0.0 0.0 0.00 0.00 0.00 93 1020.9
20200117185935 35 185 0.0 0.0 0.00 0.00 0.00 94 1021.2
20200117185430 35 191 0.0 0.0 0.00 0.00 0.00 94 1020.9
20200117184924 35 191 0.0 0.0 0.00 0.00 0.00 94 1021.2
20200117184419 35 191 0.0 0.0 0.00 0.00 0.00 94 1020.9
20200117183913 35 191 0.0 0.0 0.00 0.00 0.00 94 1021.2
20200117183408 34 191 0.0 0.0 0.00 0.00 0.00 94 1020.9
20200117182902 34 191 0.0 0.0 0.00 0.00 0.00 94 1020.9
20200117182356 34 191 0.0 0.0 0.00 0.00 0.00 94 1020.9
20200117181850 34 191 0.0 0.0 0.00 0.00 0.00 93 1020.5
20200117181345 34 191 0.0 0.0 0.00 0.00 0.00 94 1020.5
20200117180840 33 191 0.0 0.0 0.00 0.00 0.00 94 1020.5
20200117180334 33 191 0.0 0.0 0.00 0.00 0.00 94 1020.9
20200117175828 33 191 0.0 0.0 0.00 0.00 0.00 94 1020.5
20200117175323 32 190 0.0 0.0 0.00 0.00 0.00 94 1020.5
20200117174817 32 188 0.0 0.0 0.00 0.00 0.00 94 1020.2
20200117174312 32 191 0.0 0.0 0.00 0.00 0.00 94 1020.2
20200117173807 32 197 0.0 0.0 0.00 0.00 0.00 94 1020.2
20200117173301 32 197 0.0 0.0 0.00 0.00 0.00 94 1019.8
20200117172756 32 197 0.0 0.0 0.00 0.00 0.00 94 1020.2
20200117172250 32 193 0.0 0.0 0.00 0.00 0.00 94 1020.2
20200117171744 32 193 0.0 0.0 0.00 0.00 0.00 94 1019.8
20200117171238 32 193 0.0 0.0 0.00 0.00 0.00 94 1019.8
20200117170733 32 193 0.0 0.0 0.00 0.00 0.00 94 1019.8
20200117170227 32 193 0.0 0.0 0.00 0.00 0.00 94 1019.5
20200117165722 32 199 0.0 0.0 0.00 0.00 0.00 94 1019.8
20200117165217 32 199 0.0 0.0 0.00 0.00 0.00 94 1019.5
20200117164711 32 200 0.0 0.0 0.00 0.00 0.00 94 1019.5